sensor_id;sensor_type;location;lat;lon;timestamp;temperature;humidity
5554;DHT22;2800;49.528;8.666;2023-11-19T00:01:26;8.00;99.90
5554;DHT22;2800;49.528;8.666;2023-11-19T00:03:51;8.00;99.90
5554;DHT22;2800;49.528;8.666;2023-11-19T00:06:18;8.00;99.90
5554;DHT22;2800;49.528;8.666;2023-11-19T00:08:44;8.10;99.90
5554;DHT22;2800;49.528;8.666;2023-11-19T00:11:09;8.10;99.90
5554;DHT22;2800;49.528;8.666;2023-11-19T00:13:35;8.10;99.90
5554;DHT22;2800;49.528;8.666;2023-11-19T00:16:00;8.10;99.90
5554;DHT22;2800;49.528;8.666;2023-11-19T00:18:26;8.10;99.90
5554;DHT22;2800;49.528;8.666;2023-11-19T00:20:51;8.10;99.90
5554;DHT22;2800;49.528;8.666;2023-11-19T00:23:17;8.20;99.90
5554;DHT22;2800;49.528;8.666;2023-11-19T00:25:42;8.20;99.90
5554;DHT22;2800;49.528;8.666;2023-11-19T00:28:08;8.20;99.90
5554;DHT22;2800;49.528;8.666;2023-11-19T00:30:33;8.30;99.90
5554;DHT22;2800;49.528;8.666;2023-11-19T00:32:59;8.30;99.90
5554;DHT22;2800;49.528;8.666;2023-11-19T00:35:24;8.30;99.90
5554;DHT22;2800;49.528;8.666;2023-11-19T00:37:50;8.30;99.90
5554;DHT22;2800;49.528;8.666;2023-11-19T00:40:16;8.40;99.90
5554;DHT22;2800;49.528;8.666;2023-11-19T00:42:43;8.40;99.90
5554;DHT22;2800;49.528;8.666;2023-11-19T00:45:09;8.40;99.90
5554;DHT22;2800;49.528;8.666;2023-11-19T00:47:34;8.50;99.90
5554;DHT22;2800;49.528;8.666;2023-11-19T00:50:01;8.50;99.90
5554;DHT22;2800;49.528;8.666;2023-11-19T00:52:26;8.50;99.90
5554;DHT22;2800;49.528;8.666;2023-11-19T00:54:52;8.50;99.90
5554;DHT22;2800;49.528;8.666;2023-11-19T00:57:17;8.50;99.90
5554;DHT22;2800;49.528;8.666;2023-11-19T00:59:43;8.50;99.90
5554;DHT22;2800;49.528;8.666;2023-11-19T01:02:08;8.50;99.90
5554;DHT22;2800;49.528;8.666;2023-11-19T01:04:35;8.50;99.90
5554;DHT22;2800;49.528;8.666;2023-11-19T01:07:04;8.50;99.90
5554;DHT22;2800;49.528;8.666;2023-11-19T01:09:30;8.50;99.90
5554;DHT22;2800;49.528;8.666;2023-11-19T01:11:58;8.50;99.90
5554;DHT22;2800;49.528;8.666;2023-11-19T01:14:25;8.60;99.90
5554;DHT22;2800;49.528;8.666;2023-11-19T01:16:51;8.60;99.90
5554;DHT22;2800;49.528;8.666;2023-11-19T01:19:19;8.60;99.90
5554;DHT22;2800;49.528;8.666;2023-11-19T01:21:44;8.60;99.90
5554;DHT22;2800;49.528;8.666;2023-11-19T01:24:10;8.60;99.90
5554;DHT22;2800;49.528;8.666;2023-11-19T01:26:38;8.60;99.90
5554;DHT22;2800;49.528;8.666;2023-11-19T01:29:04;8.70;99.90
5554;DHT22;2800;49.528;8.666;2023-11-19T01:31:30;8.60;99.90
5554;DHT22;2800;49.528;8.666;2023-11-19T01:33:57;8.70;99.90
5554;DHT22;2800;49.528;8.666;2023-11-19T01:36:22;8.80;99.90
5554;DHT22;2800;49.528;8.666;2023-11-19T01:38:48;8.70;99.90
5554;DHT22;2800;49.528;8.666;2023-11-19T01:41:14;8.80;99.90
5554;DHT22;2800;49.528;8.666;2023-11-19T01:43:39;8.80;99.90
5554;DHT22;2800;49.528;8.666;2023-11-19T01:46:08;8.80;99.90
5554;DHT22;2800;49.528;8.666;2023-11-19T01:48:41;8.80;99.90
5554;DHT22;2800;49.528;8.666;2023-11-19T01:51:08;8.80;99.90
5554;DHT22;2800;49.528;8.666;2023-11-19T01:53:36;8.80;99.90
5554;DHT22;2800;49.528;8.666;2023-11-19T01:56:03;8.80;99.90
5554;DHT22;2800;49.528;8.666;2023-11-19T01:58:29;8.80;99.90
5554;DHT22;2800;49.528;8.666;2023-11-19T02:00:56;8.90;99.90
5554;DHT22;2800;49.528;8.666;2023-11-19T02:03:22;8.90;99.90
5554;DHT22;2800;49.528;8.666;2023-11-19T02:05:51;8.90;99.90
5554;DHT22;2800;49.528;8.666;2023-11-19T02:08:16;8.90;99.90
5554;DHT22;2800;49.528;8.666;2023-11-19T02:10:42;9.00;99.90
5554;DHT22;2800;49.528;8.666;2023-11-19T02:13:08;9.00;99.90
5554;DHT22;2800;49.528;8.666;2023-11-19T02:15:35;9.00;99.90
5554;DHT22;2800;49.528;8.666;2023-11-19T02:18:23;9.00;99.90
5554;DHT22;2800;49.528;8.666;2023-11-19T02:20:52;9.00;99.90
5554;DHT22;2800;49.528;8.666;2023-11-19T02:23:18;9.10;99.90
5554;DHT22;2800;49.528;8.666;2023-11-19T02:28:23;9.10;99.90
5554;DHT22;2800;49.528;8.666;2023-11-19T02:30:48;9.20;99.90
5554;DHT22;2800;49.528;8.666;2023-11-19T02:33:14;9.20;99.90
5554;DHT22;2800;49.528;8.666;2023-11-19T02:35:40;9.20;99.90
5554;DHT22;2800;49.528;8.666;2023-11-19T02:38:06;9.20;99.90
5554;DHT22;2800;49.528;8.666;2023-11-19T02:40:32;9.30;99.90
5554;DHT22;2800;49.528;8.666;2023-11-19T02:42:58;9.20;99.90
5554;DHT22;2800;49.528;8.666;2023-11-19T02:45:24;9.20;99.90
5554;DHT22;2800;49.528;8.666;2023-11-19T02:47:50;9.30;99.90
5554;DHT22;2800;49.528;8.666;2023-11-19T02:50:18;9.20;99.90
5554;DHT22;2800;49.528;8.666;2023-11-19T02:52:51;9.30;99.90
5554;DHT22;2800;49.528;8.666;2023-11-19T02:55:17;9.30;99.90
5554;DHT22;2800;49.528;8.666;2023-11-19T02:57:43;9.30;99.90
5554;DHT22;2800;49.528;8.666;2023-11-19T03:00:18;9.30;99.90
5554;DHT22;2800;49.528;8.666;2023-11-19T03:02:47;9.30;99.90
5554;DHT22;2800;49.528;8.666;2023-11-19T03:05:19;9.30;99.90
5554;DHT22;2800;49.528;8.666;2023-11-19T03:07:45;9.40;99.90
5554;DHT22;2800;49.528;8.666;2023-11-19T03:10:11;9.40;99.90
5554;DHT22;2800;49.528;8.666;2023-11-19T03:12:40;9.30;99.90
5554;DHT22;2800;49.528;8.666;2023-11-19T03:15:06;9.40;99.90
5554;DHT22;2800;49.528;8.666;2023-11-19T03:17:32;9.40;99.90
5554;DHT22;2800;49.528;8.666;2023-11-19T03:19:59;9.40;99.90
5554;DHT22;2800;49.528;8.666;2023-11-19T03:22:26;9.40;99.90
5554;DHT22;2800;49.528;8.666;2023-11-19T03:24:51;9.40;99.90
5554;DHT22;2800;49.528;8.666;2023-11-19T03:27:17;9.50;99.90
5554;DHT22;2800;49.528;8.666;2023-11-19T03:29:43;9.50;99.90
5554;DHT22;2800;49.528;8.666;2023-11-19T03:32:08;9.60;99.90
5554;DHT22;2800;49.528;8.666;2023-11-19T03:34:34;9.60;99.90
5554;DHT22;2800;49.528;8.666;2023-11-19T03:36:59;9.60;99.90
5554;DHT22;2800;49.528;8.666;2023-11-19T03:39:25;9.60;99.90
5554;DHT22;2800;49.528;8.666;2023-11-19T03:41:52;9.60;99.90
5554;DHT22;2800;49.528;8.666;2023-11-19T03:44:17;9.70;99.90
5554;DHT22;2800;49.528;8.666;2023-11-19T03:46:44;9.70;99.90
5554;DHT22;2800;49.528;8.666;2023-11-19T03:49:09;9.70;99.90
5554;DHT22;2800;49.528;8.666;2023-11-19T03:51:35;9.70;99.90
5554;DHT22;2800;49.528;8.666;2023-11-19T03:54:00;9.70;99.90
5554;DHT22;2800;49.528;8.666;2023-11-19T03:56:26;9.70;99.90
5554;DHT22;2800;49.528;8.666;2023-11-19T03:58:52;9.70;99.90
5554;DHT22;2800;49.528;8.666;2023-11-19T04:01:18;9.70;99.90
5554;DHT22;2800;49.528;8.666;2023-11-19T04:03:43;9.70;99.90
5554;DHT22;2800;49.528;8.666;2023-11-19T04:06:09;9.80;99.90
5554;DHT22;2800;49.528;8.666;2023-11-19T04:08:35;9.70;99.90
5554;DHT22;2800;49.528;8.666;2023-11-19T04:11:02;9.80;99.90
5554;DHT22;2800;49.528;8.666;2023-11-19T04:13:28;9.80;99.90
5554;DHT22;2800;49.528;8.666;2023-11-19T04:15:53;9.80;99.90
5554;DHT22;2800;49.528;8.666;2023-11-19T04:18:19;9.80;99.90
5554;DHT22;2800;49.528;8.666;2023-11-19T04:20:44;9.90;99.90
5554;DHT22;2800;49.528;8.666;2023-11-19T04:23:10;9.90;99.90
5554;DHT22;2800;49.528;8.666;2023-11-19T04:25:36;9.90;99.90
5554;DHT22;2800;49.528;8.666;2023-11-19T04:28:02;9.90;99.90
5554;DHT22;2800;49.528;8.666;2023-11-19T04:30:28;9.90;99.90
5554;DHT22;2800;49.528;8.666;2023-11-19T04:32:54;9.90;99.90
5554;DHT22;2800;49.528;8.666;2023-11-19T04:35:19;9.90;99.90
5554;DHT22;2800;49.528;8.666;2023-11-19T04:37:45;9.90;99.90
5554;DHT22;2800;49.528;8.666;2023-11-19T04:40:11;10.00;99.90
5554;DHT22;2800;49.528;8.666;2023-11-19T04:42:37;10.00;99.90
5554;DHT22;2800;49.528;8.666;2023-11-19T04:45:06;10.00;99.90
5554;DHT22;2800;49.528;8.666;2023-11-19T04:47:35;10.00;99.90
5554;DHT22;2800;49.528;8.666;2023-11-19T04:50:00;10.10;99.90
5554;DHT22;2800;49.528;8.666;2023-11-19T04:52:26;10.10;99.90
5554;DHT22;2800;49.528;8.666;2023-11-19T04:54:51;10.10;99.90
5554;DHT22;2800;49.528;8.666;2023-11-19T04:57:17;10.10;99.90
5554;DHT22;2800;49.528;8.666;2023-11-19T04:59:43;10.10;99.90
5554;DHT22;2800;49.528;8.666;2023-11-19T05:02:09;10.10;99.90
5554;DHT22;2800;49.528;8.666;2023-11-19T05:04:34;10.10;99.90
5554;DHT22;2800;49.528;8.666;2023-11-19T05:07:00;10.20;99.90
5554;DHT22;2800;49.528;8.666;2023-11-19T05:09:26;10.20;99.90
5554;DHT22;2800;49.528;8.666;2023-11-19T05:11:52;10.20;99.90
5554;DHT22;2800;49.528;8.666;2023-11-19T05:14:17;10.20;99.90
5554;DHT22;2800;49.528;8.666;2023-11-19T05:16:45;10.30;99.90
5554;DHT22;2800;49.528;8.666;2023-11-19T05:19:11;10.30;99.90
5554;DHT22;2800;49.528;8.666;2023-11-19T05:21:36;10.30;99.90
5554;DHT22;2800;49.528;8.666;2023-11-19T05:24:02;10.30;99.90
5554;DHT22;2800;49.528;8.666;2023-11-19T05:26:31;10.30;99.90
5554;DHT22;2800;49.528;8.666;2023-11-19T05:28:56;10.30;99.90
5554;DHT22;2800;49.528;8.666;2023-11-19T05:31:22;10.40;99.90
5554;DHT22;2800;49.528;8.666;2023-11-19T05:33:47;10.40;99.90
5554;DHT22;2800;49.528;8.666;2023-11-19T05:36:13;10.40;99.90
5554;DHT22;2800;49.528;8.666;2023-11-19T05:38:39;10.40;99.90
5554;DHT22;2800;49.528;8.666;2023-11-19T05:41:05;10.40;99.90
5554;DHT22;2800;49.528;8.666;2023-11-19T05:43:32;10.40;99.90
5554;DHT22;2800;49.528;8.666;2023-11-19T05:45:58;10.50;99.90
5554;DHT22;2800;49.528;8.666;2023-11-19T05:48:25;10.50;99.90
5554;DHT22;2800;49.528;8.666;2023-11-19T05:50:51;10.50;99.90
5554;DHT22;2800;49.528;8.666;2023-11-19T05:53:17;10.60;99.90
5554;DHT22;2800;49.528;8.666;2023-11-19T05:55:42;10.60;99.90
5554;DHT22;2800;49.528;8.666;2023-11-19T05:58:24;10.60;99.90
5554;DHT22;2800;49.528;8.666;2023-11-19T06:00:51;10.60;99.90
5554;DHT22;2800;49.528;8.666;2023-11-19T06:03:17;10.70;99.90
5554;DHT22;2800;49.528;8.666;2023-11-19T06:05:46;10.70;99.90
5554;DHT22;2800;49.528;8.666;2023-11-19T06:08:12;10.70;99.90
5554;DHT22;2800;49.528;8.666;2023-11-19T06:10:42;10.70;99.90
5554;DHT22;2800;49.528;8.666;2023-11-19T06:13:08;10.80;99.90
5554;DHT22;2800;49.528;8.666;2023-11-19T06:15:35;10.80;99.90
5554;DHT22;2800;49.528;8.666;2023-11-19T06:18:01;10.80;99.90
5554;DHT22;2800;49.528;8.666;2023-11-19T06:20:32;10.80;99.90
5554;DHT22;2800;49.528;8.666;2023-11-19T06:22:57;10.90;99.90
5554;DHT22;2800;49.528;8.666;2023-11-19T06:25:23;10.90;99.90
5554;DHT22;2800;49.528;8.666;2023-11-19T06:27:52;10.90;99.90
5554;DHT22;2800;49.528;8.666;2023-11-19T06:30:18;10.90;99.90
5554;DHT22;2800;49.528;8.666;2023-11-19T06:32:44;10.90;99.90
5554;DHT22;2800;49.528;8.666;2023-11-19T06:35:10;10.90;99.90
5554;DHT22;2800;49.528;8.666;2023-11-19T06:37:38;10.90;99.90
5554;DHT22;2800;49.528;8.666;2023-11-19T06:40:04;10.90;99.90
5554;DHT22;2800;49.528;8.666;2023-11-19T06:42:30;10.90;99.90
5554;DHT22;2800;49.528;8.666;2023-11-19T06:44:56;10.90;99.90
5554;DHT22;2800;49.528;8.666;2023-11-19T06:47:25;11.00;99.90
5554;DHT22;2800;49.528;8.666;2023-11-19T06:49:51;11.00;99.90
5554;DHT22;2800;49.528;8.666;2023-11-19T06:52:16;11.00;99.90
5554;DHT22;2800;49.528;8.666;2023-11-19T06:54:42;11.00;99.90
5554;DHT22;2800;49.528;8.666;2023-11-19T06:57:07;11.10;99.90
5554;DHT22;2800;49.528;8.666;2023-11-19T06:59:34;11.10;99.90
5554;DHT22;2800;49.528;8.666;2023-11-19T07:02:00;11.10;99.90
5554;DHT22;2800;49.528;8.666;2023-11-19T07:04:25;11.10;99.90
5554;DHT22;2800;49.528;8.666;2023-11-19T07:06:51;11.10;99.90
5554;DHT22;2800;49.528;8.666;2023-11-19T07:09:18;11.20;99.90
5554;DHT22;2800;49.528;8.666;2023-11-19T07:11:44;11.20;99.90
5554;DHT22;2800;49.528;8.666;2023-11-19T07:14:11;11.30;99.90
5554;DHT22;2800;49.528;8.666;2023-11-19T07:16:37;11.30;99.90
5554;DHT22;2800;49.528;8.666;2023-11-19T07:19:03;11.30;99.90
5554;DHT22;2800;49.528;8.666;2023-11-19T07:21:29;11.30;99.90
5554;DHT22;2800;49.528;8.666;2023-11-19T07:23:55;11.40;99.90
5554;DHT22;2800;49.528;8.666;2023-11-19T07:26:21;11.40;99.90
5554;DHT22;2800;49.528;8.666;2023-11-19T07:28:47;11.40;99.90
5554;DHT22;2800;49.528;8.666;2023-11-19T07:31:13;11.50;99.90
5554;DHT22;2800;49.528;8.666;2023-11-19T07:33:42;11.50;99.90
5554;DHT22;2800;49.528;8.666;2023-11-19T07:36:11;11.50;99.90
5554;DHT22;2800;49.528;8.666;2023-11-19T07:38:37;11.50;99.90
5554;DHT22;2800;49.528;8.666;2023-11-19T07:41:02;11.50;99.90
5554;DHT22;2800;49.528;8.666;2023-11-19T07:43:28;11.60;99.90
5554;DHT22;2800;49.528;8.666;2023-11-19T07:45:53;12.90;99.90
5554;DHT22;2800;49.528;8.666;2023-11-19T07:48:19;11.60;99.90
5554;DHT22;2800;49.528;8.666;2023-11-19T07:50:52;11.70;99.90
5554;DHT22;2800;49.528;8.666;2023-11-19T07:53:18;11.70;99.90
5554;DHT22;2800;49.528;8.666;2023-11-19T07:55:44;11.70;99.90
5554;DHT22;2800;49.528;8.666;2023-11-19T07:58:13;11.70;99.90
5554;DHT22;2800;49.528;8.666;2023-11-19T08:00:38;11.70;99.90
5554;DHT22;2800;49.528;8.666;2023-11-19T08:03:04;11.70;99.90
5554;DHT22;2800;49.528;8.666;2023-11-19T08:05:31;11.60;99.90
5554;DHT22;2800;49.528;8.666;2023-11-19T08:07:57;11.70;99.90
5554;DHT22;2800;49.528;8.666;2023-11-19T08:10:23;11.70;99.90
5554;DHT22;2800;49.528;8.666;2023-11-19T08:12:49;11.70;99.90
5554;DHT22;2800;49.528;8.666;2023-11-19T08:15:15;11.60;99.90
5554;DHT22;2800;49.528;8.666;2023-11-19T08:17:41;11.70;99.90
5554;DHT22;2800;49.528;8.666;2023-11-19T08:20:08;11.60;99.90
5554;DHT22;2800;49.528;8.666;2023-11-19T08:22:37;11.60;99.90
5554;DHT22;2800;49.528;8.666;2023-11-19T08:25:06;11.50;99.90
5554;DHT22;2800;49.528;8.666;2023-11-19T08:27:33;11.50;99.90
5554;DHT22;2800;49.528;8.666;2023-11-19T08:29:59;11.50;99.90
5554;DHT22;2800;49.528;8.666;2023-11-19T08:32:25;11.50;99.90
5554;DHT22;2800;49.528;8.666;2023-11-19T08:34:51;11.50;99.90
5554;DHT22;2800;49.528;8.666;2023-11-19T08:37:16;11.50;99.90
5554;DHT22;2800;49.528;8.666;2023-11-19T08:39:52;11.50;99.90
5554;DHT22;2800;49.528;8.666;2023-11-19T08:42:18;11.50;99.90
5554;DHT22;2800;49.528;8.666;2023-11-19T08:44:43;11.50;99.90
5554;DHT22;2800;49.528;8.666;2023-11-19T08:47:12;11.50;99.90
5554;DHT22;2800;49.528;8.666;2023-11-19T08:49:38;11.70;99.90
5554;DHT22;2800;49.528;8.666;2023-11-19T08:52:04;12.00;99.90
5554;DHT22;2800;49.528;8.666;2023-11-19T08:54:30;12.00;99.90
5554;DHT22;2800;49.528;8.666;2023-11-19T08:56:56;12.00;99.90
5554;DHT22;2800;49.528;8.666;2023-11-19T08:59:21;12.00;99.90
5554;DHT22;2800;49.528;8.666;2023-11-19T09:01:47;12.00;99.90
5554;DHT22;2800;49.528;8.666;2023-11-19T09:04:12;12.00;99.90
5554;DHT22;2800;49.528;8.666;2023-11-19T09:06:38;12.00;99.90
5554;DHT22;2800;49.528;8.666;2023-11-19T09:09:03;12.00;99.90
5554;DHT22;2800;49.528;8.666;2023-11-19T09:11:31;12.00;99.90
5554;DHT22;2800;49.528;8.666;2023-11-19T09:13:57;12.10;99.90
5554;DHT22;2800;49.528;8.666;2023-11-19T09:16:22;12.10;99.90
5554;DHT22;2800;49.528;8.666;2023-11-19T09:18:48;12.20;99.90
5554;DHT22;2800;49.528;8.666;2023-11-19T09:21:13;12.30;99.90
5554;DHT22;2800;49.528;8.666;2023-11-19T09:23:39;12.40;99.90
5554;DHT22;2800;49.528;8.666;2023-11-19T09:26:05;12.40;99.90
5554;DHT22;2800;49.528;8.666;2023-11-19T09:28:31;12.40;99.90
5554;DHT22;2800;49.528;8.666;2023-11-19T09:30:57;12.40;99.90
5554;DHT22;2800;49.528;8.666;2023-11-19T09:33:24;12.40;99.90
5554;DHT22;2800;49.528;8.666;2023-11-19T09:35:50;12.50;99.90
5554;DHT22;2800;49.528;8.666;2023-11-19T09:38:16;12.50;99.90
5554;DHT22;2800;49.528;8.666;2023-11-19T09:40:42;12.50;99.90
5554;DHT22;2800;49.528;8.666;2023-11-19T09:43:08;12.50;99.90
5554;DHT22;2800;49.528;8.666;2023-11-19T09:45:48;12.50;99.90
5554;DHT22;2800;49.528;8.666;2023-11-19T09:48:18;12.50;99.90
5554;DHT22;2800;49.528;8.666;2023-11-19T09:50:47;12.50;99.90
5554;DHT22;2800;49.528;8.666;2023-11-19T09:53:17;12.50;99.90
5554;DHT22;2800;49.528;8.666;2023-11-19T09:55:43;12.50;99.90
5554;DHT22;2800;49.528;8.666;2023-11-19T09:58:09;12.50;99.90
5554;DHT22;2800;49.528;8.666;2023-11-19T10:00:37;12.50;99.90
5554;DHT22;2800;49.528;8.666;2023-11-19T10:03:03;12.60;99.90
5554;DHT22;2800;49.528;8.666;2023-11-19T10:05:30;12.60;99.90
5554;DHT22;2800;49.528;8.666;2023-11-19T10:07:56;12.70;99.90
5554;DHT22;2800;49.528;8.666;2023-11-19T10:10:21;12.70;99.90
5554;DHT22;2800;49.528;8.666;2023-11-19T10:12:47;12.70;99.90
5554;DHT22;2800;49.528;8.666;2023-11-19T10:15:23;13.50;99.90
5554;DHT22;2800;49.528;8.666;2023-11-19T10:17:56;12.70;99.90
5554;DHT22;2800;49.528;8.666;2023-11-19T10:20:22;12.60;99.90
5554;DHT22;2800;49.528;8.666;2023-11-19T10:22:48;12.60;99.90
5554;DHT22;2800;49.528;8.666;2023-11-19T10:25:33;12.60;99.90
5554;DHT22;2800;49.528;8.666;2023-11-19T10:27:58;12.70;99.90
5554;DHT22;2800;49.528;8.666;2023-11-19T10:30:30;12.70;99.90
5554;DHT22;2800;49.528;8.666;2023-11-19T10:33:09;12.80;99.90
5554;DHT22;2800;49.528;8.666;2023-11-19T10:35:37;12.90;99.90
5554;DHT22;2800;49.528;8.666;2023-11-19T10:38:15;13.00;99.90
5554;DHT22;2800;49.528;8.666;2023-11-19T10:40:41;13.00;99.90
5554;DHT22;2800;49.528;8.666;2023-11-19T10:43:07;13.10;99.90
5554;DHT22;2800;49.528;8.666;2023-11-19T10:45:34;13.50;99.90
5554;DHT22;2800;49.528;8.666;2023-11-19T10:48:02;14.00;99.90
5554;DHT22;2800;49.528;8.666;2023-11-19T10:50:29;14.60;99.90
5554;DHT22;2800;49.528;8.666;2023-11-19T10:52:57;15.40;99.90
5554;DHT22;2800;49.528;8.666;2023-11-19T10:55:33;15.70;99.90
5554;DHT22;2800;49.528;8.666;2023-11-19T10:58:02;15.80;99.90
5554;DHT22;2800;49.528;8.666;2023-11-19T11:00:29;16.10;99.90
5554;DHT22;2800;49.528;8.666;2023-11-19T11:03:01;16.00;99.90
5554;DHT22;2800;49.528;8.666;2023-11-19T11:05:32;15.90;99.90
5554;DHT22;2800;49.528;8.666;2023-11-19T11:08:00;15.90;99.90
5554;DHT22;2800;49.528;8.666;2023-11-19T11:10:26;16.20;99.90
5554;DHT22;2800;49.528;8.666;2023-11-19T11:12:52;15.70;99.90
5554;DHT22;2800;49.528;8.666;2023-11-19T11:15:27;15.30;99.90
5554;DHT22;2800;49.528;8.666;2023-11-19T11:18:00;15.00;99.90
5554;DHT22;2800;49.528;8.666;2023-11-19T11:20:31;14.80;99.90
5554;DHT22;2800;49.528;8.666;2023-11-19T11:25:40;14.60;99.90
5554;DHT22;2800;49.528;8.666;2023-11-19T11:28:41;14.50;99.90
5554;DHT22;2800;49.528;8.666;2023-11-19T11:37:25;14.30;99.90
5554;DHT22;2800;49.528;8.666;2023-11-19T11:39:51;14.20;99.90
5554;DHT22;2800;49.528;8.666;2023-11-19T11:45:11;14.10;99.90
5554;DHT22;2800;49.528;8.666;2023-11-19T11:50:12;14.00;99.90
5554;DHT22;2800;49.528;8.666;2023-11-19T11:58:13;14.10;99.90
5554;DHT22;2800;49.528;8.666;2023-11-19T12:00:40;14.20;99.90
5554;DHT22;2800;49.528;8.666;2023-11-19T12:03:08;14.20;99.90
5554;DHT22;2800;49.528;8.666;2023-11-19T12:05:38;14.20;99.90
5554;DHT22;2800;49.528;8.666;2023-11-19T12:08:06;14.30;99.90
5554;DHT22;2800;49.528;8.666;2023-11-19T12:10:38;14.40;99.90
5554;DHT22;2800;49.528;8.666;2023-11-19T12:13:08;14.60;99.90
5554;DHT22;2800;49.528;8.666;2023-11-19T12:18:32;14.90;99.90
5554;DHT22;2800;49.528;8.666;2023-11-19T12:20:58;15.00;99.90
5554;DHT22;2800;49.528;8.666;2023-11-19T12:23:30;14.90;99.90
5554;DHT22;2800;49.528;8.666;2023-11-19T12:25:56;14.90;99.90
5554;DHT22;2800;49.528;8.666;2023-11-19T12:28:22;14.80;99.90
5554;DHT22;2800;49.528;8.666;2023-11-19T12:30:49;14.80;99.90
5554;DHT22;2800;49.528;8.666;2023-11-19T12:33:16;14.70;99.90
5554;DHT22;2800;49.528;8.666;2023-11-19T12:35:43;14.70;99.90
5554;DHT22;2800;49.528;8.666;2023-11-19T12:38:19;14.60;99.90
5554;DHT22;2800;49.528;8.666;2023-11-19T12:40:46;14.60;99.90
5554;DHT22;2800;49.528;8.666;2023-11-19T12:43:21;14.60;99.90
5554;DHT22;2800;49.528;8.666;2023-11-19T12:45:47;14.50;99.90
5554;DHT22;2800;49.528;8.666;2023-11-19T12:48:13;14.50;99.90
5554;DHT22;2800;49.528;8.666;2023-11-19T12:50:57;14.50;99.90
5554;DHT22;2800;49.528;8.666;2023-11-19T12:53:24;14.40;99.90
5554;DHT22;2800;49.528;8.666;2023-11-19T12:55:54;14.50;99.90
5554;DHT22;2800;49.528;8.666;2023-11-19T12:58:30;14.50;99.90
5554;DHT22;2800;49.528;8.666;2023-11-19T13:01:03;14.50;99.90
5554;DHT22;2800;49.528;8.666;2023-11-19T13:03:35;14.40;99.90
5554;DHT22;2800;49.528;8.666;2023-11-19T13:06:02;14.40;99.90
5554;DHT22;2800;49.528;8.666;2023-11-19T13:08:35;14.30;99.90
5554;DHT22;2800;49.528;8.666;2023-11-19T13:11:01;14.30;99.90
5554;DHT22;2800;49.528;8.666;2023-11-19T13:13:26;14.20;99.90
5554;DHT22;2800;49.528;8.666;2023-11-19T13:15:52;14.50;99.90
5554;DHT22;2800;49.528;8.666;2023-11-19T13:18:17;14.50;99.90
5554;DHT22;2800;49.528;8.666;2023-11-19T13:20:42;14.50;99.90
5554;DHT22;2800;49.528;8.666;2023-11-19T13:23:08;14.40;99.90
5554;DHT22;2800;49.528;8.666;2023-11-19T13:25:34;14.40;99.90
5554;DHT22;2800;49.528;8.666;2023-11-19T13:28:00;14.40;99.90
5554;DHT22;2800;49.528;8.666;2023-11-19T13:30:26;15.40;99.90
5554;DHT22;2800;49.528;8.666;2023-11-19T13:32:52;15.90;99.90
5554;DHT22;2800;49.528;8.666;2023-11-19T13:35:19;16.80;99.90
5554;DHT22;2800;49.528;8.666;2023-11-19T13:37:45;17.00;99.90
5554;DHT22;2800;49.528;8.666;2023-11-19T13:40:12;16.60;99.90
5554;DHT22;2800;49.528;8.666;2023-11-19T13:42:44;16.80;99.90
5554;DHT22;2800;49.528;8.666;2023-11-19T13:45:13;16.50;99.90
5554;DHT22;2800;49.528;8.666;2023-11-19T13:47:43;16.00;99.90
5554;DHT22;2800;49.528;8.666;2023-11-19T13:50:10;15.50;99.90
5554;DHT22;2800;49.528;8.666;2023-11-19T13:52:40;15.40;99.90
5554;DHT22;2800;49.528;8.666;2023-11-19T13:55:08;15.50;99.90
5554;DHT22;2800;49.528;8.666;2023-11-19T13:57:38;15.60;99.90
5554;DHT22;2800;49.528;8.666;2023-11-19T14:00:05;15.30;99.90
5554;DHT22;2800;49.528;8.666;2023-11-19T14:02:42;16.00;99.90
5554;DHT22;2800;49.528;8.666;2023-11-19T14:05:08;16.40;99.90
5554;DHT22;2800;49.528;8.666;2023-11-19T14:07:34;16.90;99.90
5554;DHT22;2800;49.528;8.666;2023-11-19T14:09:59;16.80;99.90
5554;DHT22;2800;49.528;8.666;2023-11-19T14:12:25;16.80;99.90
5554;DHT22;2800;49.528;8.666;2023-11-19T14:14:50;16.70;99.90
5554;DHT22;2800;49.528;8.666;2023-11-19T14:17:16;16.20;99.90
5554;DHT22;2800;49.528;8.666;2023-11-19T14:19:42;16.20;99.90
5554;DHT22;2800;49.528;8.666;2023-11-19T14:22:08;15.80;99.90
5554;DHT22;2800;49.528;8.666;2023-11-19T14:24:37;15.50;99.90
5554;DHT22;2800;49.528;8.666;2023-11-19T14:27:02;15.30;99.90
5554;DHT22;2800;49.528;8.666;2023-11-19T14:29:28;15.20;99.90
5554;DHT22;2800;49.528;8.666;2023-11-19T14:31:56;15.00;99.90
5554;DHT22;2800;49.528;8.666;2023-11-19T14:34:22;14.90;99.90
5554;DHT22;2800;49.528;8.666;2023-11-19T14:36:47;14.80;99.90
5554;DHT22;2800;49.528;8.666;2023-11-19T14:39:13;14.70;99.90
5554;DHT22;2800;49.528;8.666;2023-11-19T14:41:39;14.70;99.90
5554;DHT22;2800;49.528;8.666;2023-11-19T14:44:05;14.70;99.90
5554;DHT22;2800;49.528;8.666;2023-11-19T14:46:31;14.60;99.90
5554;DHT22;2800;49.528;8.666;2023-11-19T14:48:56;14.60;99.90
5554;DHT22;2800;49.528;8.666;2023-11-19T14:51:22;14.60;99.90
5554;DHT22;2800;49.528;8.666;2023-11-19T14:53:47;14.50;99.90
5554;DHT22;2800;49.528;8.666;2023-11-19T14:56:13;14.60;99.90
5554;DHT22;2800;49.528;8.666;2023-11-19T14:58:39;14.50;99.90
5554;DHT22;2800;49.528;8.666;2023-11-19T15:01:05;14.50;99.90
5554;DHT22;2800;49.528;8.666;2023-11-19T15:03:31;14.50;99.90
5554;DHT22;2800;49.528;8.666;2023-11-19T15:05:56;14.50;99.90
5554;DHT22;2800;49.528;8.666;2023-11-19T15:08:22;14.40;99.90
5554;DHT22;2800;49.528;8.666;2023-11-19T15:10:48;14.30;99.90
5554;DHT22;2800;49.528;8.666;2023-11-19T15:13:13;14.20;99.90
5554;DHT22;2800;49.528;8.666;2023-11-19T15:15:39;14.10;99.90
5554;DHT22;2800;49.528;8.666;2023-11-19T15:18:05;14.00;99.90
5554;DHT22;2800;49.528;8.666;2023-11-19T15:20:30;13.90;99.90
5554;DHT22;2800;49.528;8.666;2023-11-19T15:22:57;13.90;99.90
5554;DHT22;2800;49.528;8.666;2023-11-19T15:25:23;13.80;99.90
5554;DHT22;2800;49.528;8.666;2023-11-19T15:27:49;13.70;99.90
5554;DHT22;2800;49.528;8.666;2023-11-19T15:30:15;13.70;99.90
5554;DHT22;2800;49.528;8.666;2023-11-19T15:32:41;13.60;99.90
5554;DHT22;2800;49.528;8.666;2023-11-19T15:35:10;13.50;99.90
5554;DHT22;2800;49.528;8.666;2023-11-19T15:37:37;13.50;99.90
5554;DHT22;2800;49.528;8.666;2023-11-19T15:40:06;13.50;99.90
5554;DHT22;2800;49.528;8.666;2023-11-19T15:42:33;13.50;99.90
5554;DHT22;2800;49.528;8.666;2023-11-19T15:44:59;13.50;99.90
5554;DHT22;2800;49.528;8.666;2023-11-19T15:47:24;13.50;99.90
5554;DHT22;2800;49.528;8.666;2023-11-19T15:49:50;13.50;99.90
5554;DHT22;2800;49.528;8.666;2023-11-19T15:52:15;13.50;99.90
5554;DHT22;2800;49.528;8.666;2023-11-19T15:54:41;13.50;99.90
5554;DHT22;2800;49.528;8.666;2023-11-19T15:57:07;13.40;99.90
5554;DHT22;2800;49.528;8.666;2023-11-19T15:59:32;13.30;99.90
5554;DHT22;2800;49.528;8.666;2023-11-19T16:01:58;13.30;99.90
5554;DHT22;2800;49.528;8.666;2023-11-19T16:04:24;13.20;99.90
5554;DHT22;2800;49.528;8.666;2023-11-19T16:06:49;13.20;99.90
5554;DHT22;2800;49.528;8.666;2023-11-19T16:09:15;13.20;99.90
5554;DHT22;2800;49.528;8.666;2023-11-19T16:11:44;13.20;99.90
5554;DHT22;2800;49.528;8.666;2023-11-19T16:14:11;13.10;99.90
5554;DHT22;2800;49.528;8.666;2023-11-19T16:16:37;13.00;99.90
5554;DHT22;2800;49.528;8.666;2023-11-19T16:19:02;13.10;99.90
5554;DHT22;2800;49.528;8.666;2023-11-19T16:21:29;13.20;99.90
5554;DHT22;2800;49.528;8.666;2023-11-19T16:23:55;13.30;99.90
5554;DHT22;2800;49.528;8.666;2023-11-19T16:26:20;13.20;99.90
5554;DHT22;2800;49.528;8.666;2023-11-19T16:28:46;13.20;99.90
5554;DHT22;2800;49.528;8.666;2023-11-19T16:31:11;13.30;99.90